Barnstable, MA

11:03 PM EST on December 24, 2014 (GMT -0500)
Cape Air EDC Building | Change Station
CLOSE
Current Station
Personal Weather Station
Location: Hyannis, MA
Elevation: 49 ft
Nearby Weather Stations
Active Advisory: Areal Flood Watch, Wind Advisory

Elev 49 ft 41.67 °N, 70.29 °W | Updated 0 second ago

Light Rain
Light Rain Mist
58.1 °F
Feels Like 58.1 °F
N
15.4
Wind Variable Wind from SSW
Gusts 15.4 mph

Today
High -- | Low -- °F
--% Chance of Precip.
Yesterday
High -- | Low -- °F
Precip. -- in
7:06 AM 4:15 PM
Waxing Crescent, 13% visible
Pressure 29.62 in
Visibility 6.0 miles
Clouds Overcast 300 ft
Dew Point 57 °F
Humidity 97%
Rainfall 0.00 in
Snow Depth Not available.
UV 0 out of 12
Pollen .10 out of 12
Air Quality Not available.
Flu Activity Not available.
METAR KHYA 250356Z 19018G27KT 6SM -RA BR OVC003 16/15 A2962 RMK AO2 PK WND 19029/0345 SLP030 P0031 T01560150

More Conditions Fewer Conditions

Pressure 29.62 in
Visibility 6.0 miles
Clouds Overcast 300 ft
Dew Point 57 °F
Humidity 97%
Rainfall 0.00 in
Snow Depth Not available.
UV 0 out of 12
Pollen .10 out of 12
Air Quality Not available.
Flu Activity Not available.
METAR KHYA 250356Z 19018G27KT 6SM -RA BR OVC003 16/15 A2962 RMK AO2 PK WND 19029/0345 SLP030 P0031 T01560150

More Conditions Fewer Conditions

10-Day Weather Forecast

Almanac

Astronomy

Dec. 24, 2014 Rise Set
Actual Time
Civil Twilight
Nautical Twilight
Astronomical Twilight
Moon
Length of Visible Light
Length of Day
Tomorrow will be .
, % of the Moon is Illuminated

Today's Extremes

State Highs State Lows

Community

WunderPhotos

Upload Photos

1,780,226 photos uploaded!

WunderBlogs® & News

Nearby

Air Quality

  Air Quality AQ Index Pollutant
Not available.

Snow Depth

Station Depth Elevation

Earthquake Activity

City Distance Mag. Time & Date
Minimum magnitude displayed is 2.5.

Coastal Water Temperatures

Place Temperature

Nearby Weather Stations